Terminal Aerodrome Forecast
Issued by NWS

Home | Current Version | Previous Version | Text Only | Print | Product List | Glossary On
Versions: 1 2 3 4 5 6 7 8 9 10 11 12 13 14 15 16 17 18 19 20 21 22 23 24 25 26 27 28 29
000
FTUS42 KGSP 260539
TAFGMU
TAF
KGMU 260539Z 2606/2706 34005KT P6SM SCT060
     FM261500 05005KT P6SM BKN050
     FM261700 08006KT P6SM VCSH OVC035 PROB30 2617/2620 5SM -SHRA
      OVC025
     FM262000 06005KT 5SM -SHRA BR OVC025
     FM270300 36003KT 3SM BR VCSH OVC012=

USA.gov is the U.S. government's official web portal to all federal, state and local government web resources and services.